Time;durP1;ratioP1;P1;durP2;ratioP2;P2;SDS_P1;SDS_P2;PMS_P1;PMS_P2;Temp;Humidity;BMP_temperature;BMP_pressure;BME280_temperature;BME280_humidity;BME280_pressure;Samples;Min_cycle;Max_cycle;Signal;HPM_P1;HPM_P2
2023/12/14 00:02:11;;;;;;;12.20;9.40;;;;;;;4.86;91.97;93909.16;110271;1277;22120;-79
2023/12/14 00:04:41;;;;;;;11.00;8.10;;;;;;;4.81;92.04;93905.11;110319;1277;22940;-79
2023/12/14 00:07:10;;;;;;;9.30;6.80;;;;;;;4.80;92.24;93918.19;110099;1277;22174;-78
2023/12/14 00:09:38;;;;;;;10.20;7.20;;;;;;;4.81;92.31;93919.77;110284;1277;22139;-79
2023/12/14 00:12:07;;;;;;;8.50;6.20;;;;;;;4.79;92.19;93899.91;110276;1277;22242;-79
2023/12/14 00:14:35;;;;;;;9.10;6.30;;;;;;;4.77;92.15;93895.98;110290;1277;22121;-79
2023/12/14 00:17:03;;;;;;;12.20;8.20;;;;;;;4.76;92.17;93913.06;110298;1277;22791;-78
2023/12/14 00:19:31;;;;;;;9.80;7.10;;;;;;;4.76;92.31;93932.75;110249;1277;22203;-79
2023/12/14 00:21:59;;;;;;;11.20;8.20;;;;;;;4.76;92.42;93941.45;110308;1277;22108;-79
2023/12/14 00:24:28;;;;;;;11.60;7.80;;;;;;;4.78;92.87;93948.54;110326;1277;22124;-79
2023/12/14 00:26:56;;;;;;;9.80;6.80;;;;;;;4.83;92.88;93955.92;110292;1277;22470;-79
2023/12/14 00:29:24;;;;;;;9.20;7.10;;;;;;;4.88;93.04;93965.92;110296;1277;22858;-79
2023/12/14 00:31:52;;;;;;;9.70;7.70;;;;;;;4.93;93.53;93969.30;110277;1277;22169;-79
2023/12/14 00:34:20;;;;;;;10.20;7.20;;;;;;;4.95;93.61;93972.20;110275;1277;22179;-79
2023/12/14 00:36:48;;;;;;;8.70;6.30;;;;;;;4.99;93.41;93977.86;110306;1277;22824;-79
2023/12/14 00:39:16;;;;;;;11.70;7.30;;;;;;;5.05;93.59;93975.98;110300;1277;22107;-78
2023/12/14 00:41:45;;;;;;;7.90;6.00;;;;;;;5.08;93.30;93977.48;110275;1277;22401;-78
2023/12/14 00:44:13;;;;;;;9.10;6.50;;;;;;;5.07;92.91;93980.63;110328;1277;22157;-79
2023/12/14 00:46:41;;;;;;;9.70;6.10;;;;;;;5.06;93.07;93987.13;110191;1277;22846;-78
2023/12/14 00:49:09;;;;;;;7.50;5.50;;;;;;;5.03;93.23;93983.19;110302;1277;22124;-78
2023/12/14 00:51:38;;;;;;;7.00;5.70;;;;;;;5.05;93.47;93985.92;110309;1277;23000;-79
2023/12/14 00:54:06;;;;;;;9.10;6.70;;;;;;;5.06;93.51;93983.62;110325;1277;22132;-79
2023/12/14 00:56:34;;;;;;;7.30;5.50;;;;;;;5.12;93.95;93978.25;110287;1277;22208;-78
2023/12/14 00:59:02;;;;;;;7.20;5.10;;;;;;;5.17;93.58;93980.23;110303;1277;22133;-78
2023/12/14 01:01:30;;;;;;;7.70;5.80;;;;;;;5.17;93.50;93976.56;110276;1277;22111;-78
2023/12/14 01:03:59;;;;;;;7.50;5.90;;;;;;;5.25;93.99;93974.45;110318;1277;22131;-78
2023/12/14 01:06:27;;;;;;;7.40;5.30;;;;;;;5.35;94.34;93967.95;110326;1277;22186;-78
2023/12/14 01:08:55;;;;;;;6.10;4.80;;;;;;;5.42;94.13;93979.80;110299;1277;22890;-78
2023/12/14 01:11:24;;;;;;;6.80;5.20;;;;;;;5.43;93.57;93979.60;110300;1277;22111;-78
2023/12/14 01:13:52;;;;;;;6.70;5.10;;;;;;;5.43;93.56;93975.93;110318;1277;23033;-78
2023/12/14 01:16:20;;;;;;;6.70;5.10;;;;;;;5.44;93.58;93978.87;110317;1277;22135;-79
2023/12/14 01:18:48;;;;;;;7.90;5.80;;;;;;;5.49;93.91;93978.08;110316;1274;22196;-78
2023/12/14 01:21:17;;;;;;;10.20;6.90;;;;;;;5.55;93.85;93987.50;110301;1277;22105;-78
2023/12/14 01:23:45;;;;;;;6.90;5.20;;;;;;;5.59;93.81;93996.65;110320;1277;22740;-78
2023/12/14 01:26:13;;;;;;;26.00;13.60;;;;;;;5.56;92.92;93994.45;110278;1277;22885;-78
2023/12/14 01:28:41;;;;;;;13.70;7.70;;;;;;;5.53;92.86;93989.31;110292;1277;22179;-78
2023/12/14 01:31:10;;;;;;;7.60;5.10;;;;;;;5.57;93.36;93987.63;110169;1277;22898;-78
2023/12/14 01:33:38;;;;;;;6.80;5.30;;;;;;;5.60;93.25;93990.88;110321;1277;22107;-78
2023/12/14 01:36:07;;;;;;;7.90;4.80;;;;;;;5.61;92.94;93989.09;110330;1277;22112;-78
2023/12/14 01:38:35;;;;;;;6.70;4.90;;;;;;;5.54;92.25;93996.77;110296;1277;22125;-78
2023/12/14 01:41:03;;;;;;;6.30;4.90;;;;;;;5.55;92.82;93999.70;110301;1277;22230;-78
2023/12/14 01:43:32;;;;;;;6.00;4.60;;;;;;;5.56;92.82;93996.20;110269;1277;22141;-78
2023/12/14 01:46:00;;;;;;;6.50;4.40;;;;;;;5.52;92.38;93996.81;110324;1277;22135;-78
2023/12/14 01:48:28;;;;;;;6.50;5.10;;;;;;;5.46;92.35;94004.45;110327;1277;22124;-78
2023/12/14 01:50:56;;;;;;;6.70;4.70;;;;;;;5.52;93.22;94013.02;110306;1277;22125;-79
2023/12/14 01:53:26;;;;;;;7.30;4.60;;;;;;;5.54;92.79;94015.42;110300;1277;22341;-78
2023/12/14 01:55:54;;;;;;;5.30;4.10;;;;;;;5.54;92.68;94013.48;110307;1277;22118;-78
2023/12/14 01:58:23;;;;;;;4.30;3.80;;;;;;;5.57;92.75;94016.41;110303;1277;22200;-78
2023/12/14 02:00:56;;;;;;;60.50;33.00;;;;;;;5.49;91.93;94021.48;110312;1277;22121;-78
2023/12/14 02:03:24;;;;;;;8.60;6.30;;;;;;;5.44;92.16;94022.30;110332;1277;22711;-78
2023/12/14 02:05:52;;;;;;;4.30;3.60;;;;;;;5.39;91.89;94022.59;110321;1277;22125;-78
2023/12/14 02:08:21;;;;;;;4.80;3.60;;;;;;;5.38;92.33;94024.52;110340;1277;22816;-78
2023/12/14 02:10:49;;;;;;;6.30;3.90;;;;;;;5.40;93.42;94020.64;110322;1277;22111;-78
2023/12/14 02:13:17;;;;;;;7.10;4.90;;;;;;;5.42;92.97;94017.82;110330;1277;22162;-78
2023/12/14 02:15:45;;;;;;;12.70;6.70;;;;;;;5.40;93.21;94007.92;110305;1277;22956;-78
2023/12/14 02:18:14;;;;;;;17.20;10.40;;;;;;;5.40;93.24;94001.98;110328;1277;22196;-79
2023/12/14 02:20:42;;;;;;;8.30;5.80;;;;;;;5.43;93.31;93995.30;110285;1277;22226;-79
2023/12/14 02:23:10;;;;;;;12.90;9.30;;;;;;;5.39;93.38;93992.61;110168;1277;22205;-79
2023/12/14 02:25:38;;;;;;;9.30;6.70;;;;;;;5.42;93.60;93990.79;110319;1264;22116;-79
2023/12/14 02:28:07;;;;;;;5.90;4.80;;;;;;;5.46;93.73;93994.70;110327;1277;22958;-78
2023/12/14 02:30:35;;;;;;;7.80;5.60;;;;;;;5.52;93.78;93998.56;110313;1277;22156;-78
2023/12/14 02:33:03;;;;;;;3.60;2.60;;;;;;;5.56;93.39;93994.46;110320;1277;22157;-78
2023/12/14 02:35:32;;;;;;;6.00;2.90;;;;;;;5.46;92.28;94006.20;110281;1277;22180;-78
2023/12/14 02:38:00;;;;;;;3.00;2.30;;;;;;;5.49;93.28;94019.55;110310;1277;22919;-78
2023/12/14 02:40:28;;;;;;;3.40;2.60;;;;;;;5.57;94.03;94034.55;110350;1277;22128;-78
2023/12/14 02:42:56;;;;;;;4.00;2.70;;;;;;;5.70;95.09;94046.62;110316;1277;22133;-79
2023/12/14 02:45:24;;;;;;;2.40;2.00;;;;;;;5.82;95.34;94045.98;110324;1277;22140;-78
2023/12/14 02:47:54;;;;;;;3.40;2.00;;;;;;;5.89;95.14;94047.38;110343;1277;22120;-78
2023/12/14 02:50:22;;;;;;;2.80;2.30;;;;;;;5.94;95.12;94046.73;110294;1277;22135;-79
2023/12/14 02:52:50;;;;;;;3.40;2.40;;;;;;;5.96;94.84;94029.94;110333;1277;22820;-79
2023/12/14 02:55:18;;;;;;;2.10;1.90;;;;;;;5.97;94.75;94028.53;110343;1277;22152;-78
2023/12/14 02:57:46;;;;;;;2.30;1.90;;;;;;;5.96;94.74;94032.04;110328;1277;22157;-79
2023/12/14 03:00:15;;;;;;;2.90;1.30;;;;;;;5.93;94.73;94028.60;110333;1277;22914;-79
2023/12/14 03:02:43;;;;;;;1.80;1.20;;;;;;;5.90;94.56;94036.18;110314;1277;22159;-78
2023/12/14 03:05:11;;;;;;;2.10;1.30;;;;;;;5.89;94.55;94042.46;110331;1277;22092;-78
2023/12/14 03:07:40;;;;;;;0.80;0.80;;;;;;;5.88;94.38;94044.94;110329;1277;22197;-79
2023/12/14 03:10:09;;;;;;;1.00;0.90;;;;;;;5.85;94.29;94052.52;110353;1277;22837;-79
2023/12/14 03:12:37;;;;;;;1.10;0.60;;;;;;;5.80;94.05;94059.77;110338;1277;22184;-79
2023/12/14 03:15:06;;;;;;;1.10;1.00;;;;;;;5.73;94.03;94072.35;110325;1277;22181;-79
2023/12/14 03:17:34;;;;;;;1.00;0.80;;;;;;;5.68;94.06;94079.98;110315;1277;23033;-78
2023/12/14 03:20:04;;;;;;;1.80;0.70;;;;;;;5.62;94.15;94085.53;110348;1277;22148;-78
2023/12/14 03:22:33;;;;;;;0.80;0.60;;;;;;;5.60;93.92;94088.02;110293;1277;22139;-79
2023/12/14 03:25:03;;;;;;;1.00;0.70;;;;;;;5.53;93.91;94095.32;110345;1277;22862;-80
2023/12/14 03:27:31;;;;;;;1.40;0.90;;;;;;;5.47;94.10;94095.64;110301;1277;22145;-79
2023/12/14 03:30:00;;;;;;;8.80;2.70;;;;;;;5.42;94.00;94093.66;110333;1277;22123;-78
2023/12/14 03:32:28;;;;;;;0.80;0.50;;;;;;;5.39;94.03;94097.21;110337;1277;22108;-79
2023/12/14 03:34:56;;;;;;;0.40;0.40;;;;;;;5.36;94.05;94103.04;110331;1277;22145;-78
2023/12/14 03:37:24;;;;;;;1.60;0.80;;;;;;;5.37;93.89;94109.63;110313;1277;23098;-78
2023/12/14 03:39:52;;;;;;;0.90;0.50;;;;;;;5.35;93.83;94114.92;110334;1277;23034;-78
2023/12/14 03:42:21;;;;;;;1.40;0.50;;;;;;;5.35;93.69;94124.18;110325;1277;22140;-78
2023/12/14 03:44:49;;;;;;;0.50;0.50;;;;;;;5.35;93.65;94122.60;110330;1277;22122;-78
2023/12/14 03:47:17;;;;;;;0.30;0.30;;;;;;;5.34;93.59;94127.16;110335;1277;22145;-79
2023/12/14 03:49:45;;;;;;;1.10;0.70;;;;;;;5.34;93.43;94143.38;110157;1277;22182;-78
2023/12/14 03:52:13;;;;;;;0.90;0.50;;;;;;;5.33;93.36;94148.98;110361;1277;22138;-77
2023/12/14 03:54:41;;;;;;;0.40;0.30;;;;;;;5.31;93.27;94145.00;110342;1277;22219;-78
2023/12/14 03:57:10;;;;;;;5.30;1.90;;;;;;;5.28;93.19;94119.77;110341;1270;22155;-77
2023/12/14 03:59:41;;;;;;;1.00;0.70;;;;;;;5.29;93.32;94121.51;110331;1277;22154;-77
2023/12/14 04:02:09;;;;;;;0.60;0.30;;;;;;;5.28;93.08;94134.79;110332;1277;22171;-78
2023/12/14 04:04:37;;;;;;;0.60;0.40;;;;;;;5.24;92.86;94134.00;110300;1277;22105;-77
2023/12/14 04:07:05;;;;;;;0.50;0.40;;;;;;;5.25;93.13;94151.59;110326;1277;22980;-76
2023/12/14 04:09:34;;;;;;;0.40;0.40;;;;;;;5.26;93.10;94153.84;110413;1276;22276;-76
2023/12/14 04:12:02;;;;;;;0.60;0.60;;;;;;;5.29;93.15;94160.39;110304;1277;22275;-76
2023/12/14 04:14:31;;;;;;;1.50;1.10;;;;;;;5.29;92.91;94159.00;110337;1277;23009;-76
2023/12/14 04:16:59;;;;;;;0.60;0.40;;;;;;;5.31;92.96;94148.65;110331;1277;22124;-78
2023/12/14 04:19:27;;;;;;;0.60;0.60;;;;;;;5.32;92.90;94145.33;110352;1277;22156;-78
2023/12/14 04:21:56;;;;;;;0.70;0.50;;;;;;;5.33;92.79;94142.88;110340;1277;22123;-79
2023/12/14 04:24:24;;;;;;;2.10;0.70;;;;;;;5.26;92.29;94150.87;110330;1277;22109;-79
2023/12/14 04:26:52;;;;;;;1.10;0.70;;;;;;;5.21;92.40;94164.02;110325;1277;22179;-79
2023/12/14 04:29:20;;;;;;;2.80;0.30;;;;;;;5.17;92.38;94178.77;110354;1277;22107;-80
2023/12/14 04:31:49;;;;;;;0.80;0.40;;;;;;;5.16;92.25;94183.48;110333;1277;22210;-79
2023/12/14 04:34:18;;;;;;;1.10;0.40;;;;;;;5.16;92.14;94192.20;110335;1277;22101;-79
2023/12/14 04:36:48;;;;;;;0.70;0.20;;;;;;;5.15;92.07;94186.99;110343;1266;22189;-78
2023/12/14 04:39:16;;;;;;;0.40;0.40;;;;;;;5.16;92.06;94178.61;110313;1278;22372;-79
2023/12/14 04:41:45;;;;;;;1.80;0.30;;;;;;;5.15;91.88;94167.83;110349;1277;22178;-81
2023/12/14 04:44:13;;;;;;;0.80;0.50;;;;;;;5.14;91.86;94166.61;109792;1277;685802;-80
2023/12/14 04:46:42;;;;;;;0.50;0.40;;;;;;;5.17;91.83;94165.34;110331;1277;22111;-81
2023/12/14 04:49:10;;;;;;;1.00;0.50;;;;;;;5.17;91.72;94170.04;110359;1277;22300;-80
2023/12/14 04:51:39;;;;;;;0.60;0.30;;;;;;;5.15;91.60;94175.14;110347;1277;22147;-81
2023/12/14 04:54:07;;;;;;;0.40;0.40;;;;;;;5.12;91.46;94182.71;110362;1277;22192;-80
2023/12/14 04:56:35;;;;;;;3.30;1.90;;;;;;;5.13;91.57;94185.11;110337;1277;22124;-80
2023/12/14 04:59:03;;;;;;;1.20;1.00;;;;;;;5.13;91.43;94192.62;110168;1277;22128;-80
2023/12/14 05:01:31;;;;;;;0.80;0.40;;;;;;;5.11;91.32;94198.92;110336;1277;22734;-81
2023/12/14 05:04:02;;;;;;;0.70;0.30;;;;;;;5.09;91.42;94198.11;110356;1277;22135;-79
2023/12/14 05:06:33;;;;;;;0.90;0.30;;;;;;;5.10;91.59;94211.14;110331;1277;22263;-80
2023/12/14 05:09:05;;;;;;;2.10;0.80;;;;;;;5.08;91.57;94210.67;110344;1277;22805;-81
2023/12/14 05:11:33;;;;;;;2.20;1.00;;;;;;;5.05;91.57;94210.55;110323;1277;22225;-80
2023/12/14 05:14:03;;;;;;;1.70;1.00;;;;;;;5.02;91.66;94217.77;110325;1277;22122;-81
2023/12/14 05:16:31;;;;;;;1.00;0.80;;;;;;;4.92;92.04;94234.15;110343;1277;22760;-81
2023/12/14 05:18:59;;;;;;;3.80;2.80;;;;;;;4.84;92.15;94237.96;110356;1277;22100;-80
2023/12/14 05:21:28;;;;;;;1.90;0.70;;;;;;;4.76;92.43;94235.85;110368;1277;22135;-80
2023/12/14 05:23:56;;;;;;;1.40;0.80;;;;;;;4.75;92.62;94240.04;110363;1277;22144;-80
2023/12/14 05:26:24;;;;;;;0.90;0.50;;;;;;;4.72;92.61;94246.19;110342;1277;22188;-80
2023/12/14 05:28:53;;;;;;;3.00;0.50;;;;;;;4.69;92.52;94248.68;110296;1264;22230;-81
2023/12/14 05:31:22;;;;;;;10.20;7.50;;;;;;;4.69;92.21;94245.54;110339;1277;22120;-81
2023/12/14 05:33:50;;;;;;;1.00;0.90;;;;;;;4.69;92.21;94248.34;110326;1277;22291;-80
2023/12/14 05:36:18;;;;;;;4.20;0.50;;;;;;;4.67;92.28;94246.11;110337;1277;22373;-81
2023/12/14 05:38:47;;;;;;;1.40;0.70;;;;;;;4.66;92.21;94245.77;110328;1277;22210;-81
2023/12/14 05:41:15;;;;;;;0.70;0.60;;;;;;;4.65;92.23;94249.63;110348;1277;22920;-81
2023/12/14 05:43:43;;;;;;;0.70;0.60;;;;;;;4.64;92.07;94253.66;110310;1277;22765;-83
2023/12/14 05:46:21;;;;;;;0.50;0.40;;;;;;;4.61;91.99;94249.34;110341;1277;23104;-80
2023/12/14 05:48:50;;;;;;;0.60;0.50;;;;;;;4.62;91.88;94247.95;110349;1277;22198;-80
2023/12/14 05:51:32;;;;;;;0.70;0.70;;;;;;;4.64;91.75;94259.56;110332;1277;22136;-81
2023/12/14 05:54:00;;;;;;;1.00;0.60;;;;;;;4.65;91.51;94260.08;110360;1277;22141;-80
2023/12/14 05:56:29;;;;;;;0.60;0.40;;;;;;;4.67;91.38;94267.88;110350;1277;22140;-80
2023/12/14 05:58:57;;;;;;;1.00;0.40;;;;;;;4.69;91.33;94266.10;110321;1277;22144;-80
2023/12/14 06:01:25;;;;;;;2.20;1.00;;;;;;;4.68;91.20;94265.06;110343;1277;22209;-79
2023/12/14 06:03:54;;;;;;;0.80;0.70;;;;;;;4.67;91.02;94269.79;110346;1277;23337;-79
2023/12/14 06:06:22;;;;;;;2.00;0.60;;;;;;;4.68;91.10;94278.47;110117;1264;22179;-81
2023/12/14 06:08:51;;;;;;;0.30;0.30;;;;;;;4.69;91.15;94282.99;110358;1277;22319;-79
2023/12/14 06:11:20;;;;;;;3.80;2.10;;;;;;;4.74;91.62;94281.52;110357;1261;22274;-82
2023/12/14 06:13:48;;;;;;;6.50;4.00;;;;;;;4.79;91.47;94285.09;110306;1277;22928;-81
2023/12/14 06:16:16;;;;;;;1.20;0.70;;;;;;;4.81;90.88;94275.13;110295;1277;23218;-82
2023/12/14 06:18:44;;;;;;;1.50;1.10;;;;;;;4.81;90.78;94262.23;110306;1277;22962;-82
2023/12/14 06:21:13;;;;;;;1.20;0.40;;;;;;;4.85;90.81;94258.67;110350;1277;22145;-83
2023/12/14 06:23:42;;;;;;;0.70;0.30;;;;;;;4.83;90.27;94255.05;110356;1277;22180;-82
2023/12/14 06:26:10;;;;;;;0.30;0.20;;;;;;;4.84;90.55;94263.39;110317;1277;22189;-82
2023/12/14 06:28:38;;;;;;;4.90;3.30;;;;;;;4.79;90.03;94277.25;110332;1277;22446;-81
2023/12/14 06:31:13;;;;;;;5.60;4.10;;;;;;;4.81;90.17;94288.89;110331;1277;23128;-81
2023/12/14 06:33:41;;;;;;;1.50;1.10;;;;;;;4.82;89.95;94295.50;110266;1267;22233;-81
2023/12/14 06:36:10;;;;;;;3.90;2.50;;;;;;;4.81;90.15;94299.15;110289;1277;23242;-86
2023/12/14 06:38:40;;;;;;;4.80;4.00;;;;;;;4.81;89.79;94299.17;110337;1277;22327;-84
2023/12/14 06:41:08;;;;;;;2.70;2.20;;;;;;;4.83;89.87;94303.83;110332;1277;22208;-83
2023/12/14 06:43:37;;;;;;;1.20;0.90;;;;;;;4.85;89.79;94306.23;110328;1277;22195;-85
2023/12/14 06:46:06;;;;;;;1.30;1.20;;;;;;;4.85;89.84;94308.51;110306;1277;22581;-83
2023/12/14 06:48:34;;;;;;;2.00;1.50;;;;;;;4.84;89.98;94313.41;110291;1277;22183;-84
2023/12/14 06:51:03;;;;;;;1.30;1.10;;;;;;;4.83;89.98;94314.11;110346;1277;22125;-83
2023/12/14 06:53:32;;;;;;;2.80;1.30;;;;;;;4.85;90.05;94317.73;110341;1277;22836;-83
2023/12/14 06:56:00;;;;;;;1.70;1.60;;;;;;;4.92;90.00;94327.71;110331;1277;22112;-83
2023/12/14 06:58:28;;;;;;;4.30;3.60;;;;;;;4.95;89.95;94328.88;110309;1277;22221;-83
2023/12/14 07:00:57;;;;;;;3.40;3.10;;;;;;;5.00;89.93;94332.83;110288;1277;22371;-82
2023/12/14 07:03:25;;;;;;;1.30;1.00;;;;;;;5.06;90.02;94337.76;110309;1277;22202;-84
2023/12/14 07:05:53;;;;;;;1.40;1.00;;;;;;;5.11;90.01;94339.94;110310;1277;23015;-82
2023/12/14 07:08:21;;;;;;;1.10;0.80;;;;;;;5.16;89.78;94351.19;110308;1277;22202;-83
2023/12/14 07:10:50;;;;;;;0.80;0.70;;;;;;;5.22;89.82;94365.55;110330;1277;22209;-85
2023/12/14 07:13:18;;;;;;;0.90;0.60;;;;;;;5.27;89.75;94369.66;110336;1277;23069;-83
2023/12/14 07:15:46;;;;;;;1.40;0.60;;;;;;;5.31;89.71;94366.96;110327;1277;22252;-81
2023/12/14 07:18:14;;;;;;;2.20;1.70;;;;;;;5.34;89.56;94363.94;110345;1277;22205;-81
2023/12/14 07:20:43;;;;;;;2.30;1.30;;;;;;;5.35;89.52;94366.89;110300;1277;23040;-83
2023/12/14 07:23:11;;;;;;;3.30;2.80;;;;;;;5.41;89.82;94369.55;110332;1277;22121;-84
2023/12/14 07:25:39;;;;;;;1.50;1.30;;;;;;;5.50;89.82;94374.12;110313;1277;22873;-82
2023/12/14 07:28:07;;;;;;;2.80;1.80;;;;;;;5.56;89.73;94372.93;110324;1277;22973;-82
2023/12/14 07:30:35;;;;;;;1.50;1.10;;;;;;;5.63;89.70;94379.09;110354;1277;22506;-87
2023/12/14 07:33:03;;;;;;;2.60;1.50;;;;;;;5.75;89.43;94386.54;110328;1277;22285;-85
2023/12/14 07:35:35;;;;;;;5.30;2.10;;;;;;;5.82;89.04;94394.77;110252;1277;22233;-85
2023/12/14 07:38:03;;;;;;;2.20;1.60;;;;;;;5.86;88.40;94406.05;110308;1277;23301;-86
2023/12/14 07:40:32;;;;;;;2.30;1.60;;;;;;;5.85;88.29;94408.51;110328;1277;22827;-83
2023/12/14 07:43:00;;;;;;;2.00;1.60;;;;;;;5.88;88.47;94406.37;110297;1277;22206;-85
2023/12/14 07:45:31;;;;;;;3.70;1.80;;;;;;;5.88;88.43;94398.14;110329;1277;22334;-86
2023/12/14 07:48:00;;;;;;;5.40;2.20;;;;;;;5.92;88.32;94396.15;110311;1277;22232;-85
2023/12/14 07:50:28;;;;;;;5.90;2.90;;;;;;;5.96;88.24;94405.52;110283;1269;23033;-85
2023/12/14 07:52:56;;;;;;;11.30;4.40;;;;;;;5.94;87.57;94407.83;110306;1277;22217;-85
2023/12/14 07:55:25;;;;;;;9.00;3.90;;;;;;;5.91;87.40;94407.70;110292;1277;22284;-83
2023/12/14 07:57:53;;;;;;;8.40;4.80;;;;;;;5.90;87.65;94422.73;110328;1277;23086;-84
2023/12/14 08:00:21;;;;;;;12.20;6.40;;;;;;;5.86;87.32;94427.50;110336;1277;22231;-81
2023/12/14 08:02:49;;;;;;;10.50;6.50;;;;;;;5.81;87.34;94430.39;110321;1277;22201;-84
2023/12/14 08:05:17;;;;;;;5.60;3.10;;;;;;;5.77;87.37;94437.97;110327;1277;22217;-81
2023/12/14 08:07:46;;;;;;;3.20;1.80;;;;;;;5.69;87.40;94450.52;110307;1277;23054;-83
2023/12/14 08:10:14;;;;;;;2.10;1.70;;;;;;;5.63;87.52;94449.94;110341;1277;22222;-84
2023/12/14 08:12:42;;;;;;;3.10;2.50;;;;;;;5.57;87.60;94443.76;110302;1277;22377;-82
2023/12/14 08:15:12;;;;;;;6.20;3.40;;;;;;;5.53;87.79;94460.56;110304;1277;23102;-84
2023/12/14 08:17:41;;;;;;;6.10;2.20;;;;;;;5.50;88.09;94474.73;110288;1277;22450;-83
2023/12/14 08:20:11;;;;;;;7.90;3.50;;;;;;;5.46;88.09;94486.34;110320;1277;22201;-84
2023/12/14 08:22:44;;;;;;;2.60;2.10;;;;;;;5.44;88.26;94487.92;110291;1277;22225;-83
2023/12/14 08:25:14;;;;;;;5.80;2.20;;;;;;;5.35;88.44;94488.95;110306;1277;22193;-83
2023/12/14 08:27:43;;;;;;;8.50;4.10;;;;;;;5.32;88.59;94493.54;110217;1277;22395;-86
2023/12/14 08:30:13;;;;;;;2.80;2.30;;;;;;;5.28;88.77;94492.91;110324;1273;22214;-84
2023/12/14 08:32:41;;;;;;;2.80;2.10;;;;;;;5.25;88.85;94496.95;110185;1277;22191;-85
2023/12/14 08:35:10;;;;;;;2.60;2.00;;;;;;;5.27;89.02;94506.68;110320;1277;22149;-83
2023/12/14 08:37:38;;;;;;;3.30;2.40;;;;;;;5.31;89.06;94506.45;110356;1277;22213;-84
2023/12/14 08:40:07;;;;;;;5.30;3.00;;;;;;;5.35;88.92;94515.64;110339;1277;22396;-88
2023/12/14 08:42:35;;;;;;;4.70;3.30;;;;;;;5.33;88.81;94522.98;110328;1277;22224;-85
2023/12/14 08:45:04;;;;;;;4.90;3.20;;;;;;;5.30;88.64;94519.70;110279;1277;22228;-87
2023/12/14 08:47:35;;;;;;;5.20;3.60;;;;;;;5.28;88.80;94522.54;110330;1277;22149;-87
2023/12/14 08:50:04;;;;;;;5.50;4.00;;;;;;;5.23;88.84;94515.30;110315;1277;22230;-86
2023/12/14 08:52:32;;;;;;;7.60;2.60;;;;;;;5.17;89.14;94514.33;110320;1277;23119;-84
2023/12/14 08:55:02;;;;;;;4.90;2.40;;;;;;;5.20;89.13;94510.62;110303;1277;22137;-84
2023/12/14 08:57:30;;;;;;;4.20;2.30;;;;;;;5.22;89.12;94507.28;110318;1277;22218;-83
2023/12/14 08:59:59;;;;;;;4.50;3.40;;;;;;;5.29;89.34;94507.02;110314;1277;22339;-85
2023/12/14 09:02:27;;;;;;;2.90;2.10;;;;;;;5.36;89.30;94507.59;110272;1267;22122;-85
2023/12/14 09:04:55;;;;;;;3.90;2.30;;;;;;;5.41;88.80;94509.60;110341;1277;22403;-85
2023/12/14 09:07:24;;;;;;;2.60;1.90;;;;;;;5.40;88.30;94523.55;110315;1277;23402;-83
2023/12/14 09:09:52;;;;;;;3.50;1.60;;;;;;;5.45;88.39;94523.14;110342;1270;22264;-84
2023/12/14 09:12:20;;;;;;;6.30;3.20;;;;;;;5.42;88.10;94522.31;110308;1277;22296;-83
2023/12/14 09:14:48;;;;;;;4.20;2.60;;;;;;;5.42;87.96;94524.93;110300;1277;22202;-82
2023/12/14 09:17:16;;;;;;;4.10;2.50;;;;;;;5.40;87.96;94527.23;110376;1277;22151;-84
2023/12/14 09:19:45;;;;;;;3.30;2.10;;;;;;;5.39;87.80;94528.27;110345;1277;22338;-80
2023/12/14 09:22:13;;;;;;;5.90;2.90;;;;;;;5.36;87.70;94538.79;110335;1277;22116;-82
2023/12/14 09:24:41;;;;;;;3.70;2.00;;;;;;;5.36;87.70;94537.07;110344;1277;22182;-83
2023/12/14 09:27:09;;;;;;;4.90;2.70;;;;;;;5.31;87.57;94537.14;110367;1277;22156;-83
2023/12/14 09:29:38;;;;;;;4.80;2.20;;;;;;;5.29;87.68;94544.50;110349;1277;22249;-83
2023/12/14 09:32:08;;;;;;;3.90;1.90;;;;;;;5.28;87.86;94546.77;110310;1277;22224;-83
2023/12/14 09:34:36;;;;;;;2.60;1.70;;;;;;;5.27;87.57;94541.39;110317;1277;23007;-82
2023/12/14 09:37:05;;;;;;;3.40;2.60;;;;;;;5.28;87.69;94543.64;110330;1277;22145;-81
2023/12/14 09:39:34;;;;;;;8.00;4.80;;;;;;;5.30;87.63;94540.64;110331;1277;22147;-82
2023/12/14 09:42:06;;;;;;;8.70;4.20;;;;;;;5.33;87.69;94537.63;110349;1277;22119;-80
2023/12/14 09:44:36;;;;;;;6.60;4.10;;;;;;;5.41;87.83;94538.90;110353;1277;22227;-81
2023/12/14 09:47:05;;;;;;;7.60;5.90;;;;;;;5.48;87.54;94536.17;110351;1277;22888;-81
2023/12/14 09:49:35;;;;;;;10.20;4.90;;;;;;;5.55;87.57;94526.45;110253;1265;22188;-83
2023/12/14 09:52:04;;;;;;;5.70;3.80;;;;;;;5.69;87.86;94524.16;110372;1277;22216;-82
2023/12/14 09:54:32;;;;;;;7.10;5.90;;;;;;;5.79;87.07;94527.98;110336;1277;22146;-83
2023/12/14 09:57:00;;;;;;;2.40;1.40;;;;;;;5.89;86.89;94528.15;110321;1277;22592;-81
2023/12/14 09:59:29;;;;;;;3.40;2.90;;;;;;;5.98;85.13;94532.38;110312;1277;22189;-79
2023/12/14 10:02:09;;;;;;;4.40;2.30;;;;;;;6.10;84.96;94532.00;110281;1277;22181;-82
2023/12/14 10:04:38;;;;;;;2.10;1.90;;;;;;;6.20;84.04;94539.33;110357;1277;22149;-83
2023/12/14 10:07:07;;;;;;;3.30;3.00;;;;;;;6.31;84.43;94538.42;110243;1277;22097;-83
2023/12/14 10:09:37;;;;;;;1.30;0.90;;;;;;;6.37;83.10;94541.44;110369;1277;22911;-82
2023/12/14 10:12:07;;;;;;;0.80;0.50;;;;;;;6.42;82.46;94552.36;110346;1277;22182;-81
2023/12/14 10:14:37;;;;;;;0.50;0.50;;;;;;;6.34;81.34;94555.13;110277;1277;22250;-82
2023/12/14 10:17:16;;;;;;;0.70;0.40;;;;;;;6.32;81.66;94556.57;110332;1277;22903;-82
2023/12/14 10:19:46;;;;;;;0.50;0.40;;;;;;;6.33;81.91;94560.73;110347;1277;22116;-82
2023/12/14 10:22:18;;;;;;;0.80;0.50;;;;;;;6.37;82.18;94558.23;110347;1277;23008;-83
2023/12/14 10:24:47;;;;;;;2.30;0.70;;;;;;;6.43;81.66;94558.80;110291;1277;22131;-83
2023/12/14 10:27:16;;;;;;;2.30;1.10;;;;;;;6.50;82.25;94556.40;110219;1277;22246;-82
2023/12/14 10:29:45;;;;;;;3.60;2.60;;;;;;;6.58;82.26;94553.45;110231;1277;22175;-84
2023/12/14 10:32:14;;;;;;;3.60;2.00;;;;;;;6.65;81.77;94552.95;110364;1277;22137;-83
2023/12/14 10:34:42;;;;;;;5.10;1.60;;;;;;;6.70;80.42;94554.94;110360;1261;22122;-84
2023/12/14 10:37:13;;;;;;;2.80;1.80;;;;;;;6.77;80.86;94557.61;110360;1277;22366;-84
2023/12/14 10:39:42;;;;;;;5.10;2.40;;;;;;;6.85;80.92;94554.64;110364;1277;22117;-84
2023/12/14 10:42:13;;;;;;;5.60;3.70;;;;;;;6.90;80.98;94548.59;110299;1277;22181;-83
2023/12/14 10:44:54;;;;;;;5.40;2.60;;;;;;;6.87;80.53;94553.02;110360;1277;22174;-84
2023/12/14 10:47:44;;;;;;;6.10;3.50;;;;;;;6.80;80.41;94550.91;110374;1277;22086;-83
2023/12/14 10:50:15;;;;;;;3.80;2.30;;;;;;;6.70;80.53;94554.27;110346;1277;22133;-84
2023/12/14 10:52:44;;;;;;;8.20;4.30;;;;;;;6.60;80.86;94558.65;110334;1277;22089;-83
2023/12/14 10:55:25;;;;;;;11.70;6.10;;;;;;;6.55;81.32;94562.42;110346;1271;22141;-84
2023/12/14 10:57:57;;;;;;;9.70;5.10;;;;;;;6.46;81.55;94566.24;110337;1277;22883;-84
2023/12/14 11:00:26;;;;;;;8.60;3.30;;;;;;;6.38;81.71;94560.82;110282;1277;22141;-82
2023/12/14 11:02:54;;;;;;;5.70;3.30;;;;;;;6.29;81.88;94561.87;110368;1277;22606;-82
2023/12/14 11:05:29;;;;;;;6.30;4.20;;;;;;;6.20;82.19;94560.80;110352;1277;22119;-83
2023/12/14 11:08:09;;;;;;;3.30;2.50;;;;;;;6.16;82.59;94566.45;110281;1277;22122;-84
2023/12/14 11:10:46;;;;;;;3.20;2.40;;;;;;;6.18;82.98;94569.40;110230;1277;22941;-84
2023/12/14 11:13:17;;;;;;;3.00;2.50;;;;;;;6.20;82.91;94567.09;110333;1277;22162;-84
2023/12/14 11:15:51;;;;;;;1.00;0.80;;;;;;;6.18;82.18;94569.91;110302;1277;22148;-84
2023/12/14 11:18:20;;;;;;;13.80;6.40;;;;;;;6.18;82.30;94576.36;110329;1277;22976;-84
2023/12/14 11:20:51;;;;;;;8.20;4.30;;;;;;;6.14;83.37;94575.57;110349;1277;22223;-83
2023/12/14 11:23:26;;;;;;;6.50;3.50;;;;;;;6.12;83.92;94582.24;110340;1277;22139;-84
2023/12/14 11:25:58;;;;;;;3.20;2.50;;;;;;;6.05;84.77;94588.14;110359;1277;22192;-84
2023/12/14 11:28:27;;;;;;;8.30;5.30;;;;;;;6.03;84.99;94593.22;110348;1277;22192;-85
2023/12/14 11:30:58;;;;;;;14.30;7.20;;;;;;;5.97;85.25;94587.04;110338;1277;22133;-83
2023/12/14 11:33:28;;;;;;;19.10;8.20;;;;;;;5.86;85.73;94591.21;110284;1277;22599;-84
2023/12/14 11:35:57;;;;;;;13.70;6.80;;;;;;;5.79;85.93;94600.39;110330;1277;22200;-84
2023/12/14 11:38:25;;;;;;;26.20;13.80;;;;;;;5.73;86.33;94599.80;110385;1277;22126;-85
2023/12/14 11:40:53;;;;;;;4.90;3.80;;;;;;;5.65;86.67;94604.98;110323;1277;22216;-83